Time;durP1;ratioP1;P1;durP2;ratioP2;P2;SDS_P1;SDS_P2;PMS_P1;PMS_P2;Temp;Humidity;BMP_temperature;BMP_pressure;BME280_temperature;BME280_humidity;BME280_pressure;Samples;Min_cycle;Max_cycle;Signal;HPM_P1;HPM_P2
2022/05/04 00:01:55;;;;;;;3.80;3.70;;;9.60;99.90;;;;;;4188062;28;20036;-81
2022/05/04 00:03:58;;;;;;;5.68;3.85;;;9.60;99.90;;;;;;4186823;28;20036;-83
2022/05/04 00:06:00;;;;;;;3.70;3.60;;;9.20;99.90;;;;;;4193466;28;20078;-82
2022/05/04 00:08:02;;;;;;;3.92;3.58;;;8.90;99.90;;;;;;4174919;28;20068;-83
2022/05/04 00:10:06;;;;;;;3.90;3.70;;;8.70;99.90;;;;;;4181722;28;20041;-82
2022/05/04 00:12:08;;;;;;;3.22;3.13;;;8.60;99.90;;;;;;4189795;28;20033;-82
2022/05/04 00:14:11;;;;;;;3.08;2.97;;;8.50;99.90;;;;;;4192229;28;20063;-82
2022/05/04 00:16:13;;;;;;;2.67;2.65;;;8.60;99.90;;;;;;4191374;28;20885;-82
2022/05/04 00:18:16;;;;;;;3.45;3.25;;;8.60;99.90;;;;;;4191080;28;20040;-83
2022/05/04 00:20:18;;;;;;;3.05;2.95;;;8.70;99.90;;;;;;4187422;28;20076;-83
2022/05/04 00:22:23;;;;;;;4.70;4.50;;;8.80;99.90;;;;;;4174141;28;20037;-82
2022/05/04 00:24:25;;;;;;;4.70;4.60;;;8.90;99.90;;;;;;4191859;28;20551;-82
2022/05/04 00:26:27;;;;;;;5.03;4.82;;;9.00;99.90;;;;;;4181426;28;20158;-82
2022/05/04 00:28:29;;;;;;;5.18;3.72;;;9.00;99.90;;;;;;4186227;28;20056;-82
2022/05/04 00:30:31;;;;;;;4.25;4.13;;;9.10;99.90;;;;;;4176051;28;20041;-82
2022/05/04 00:32:33;;;;;;;;;;;9.20;99.90;;;;;;4177898;28;20648;-83
2022/05/04 00:34:35;;;;;;;4.20;3.95;;;9.30;99.90;;;;;;4173390;28;19952;-82
2022/05/04 00:36:37;;;;;;;3.67;3.58;;;9.40;99.90;;;;;;4187707;28;20090;-82
2022/05/04 00:38:39;;;;;;;4.80;4.70;;;9.40;99.90;;;;;;4166141;28;20081;-83
2022/05/04 00:40:42;;;;;;;5.10;4.90;;;9.20;99.90;;;;;;4166306;28;20033;-83
2022/05/04 00:42:44;;;;;;;4.93;4.60;;;9.20;99.90;;;;;;4163059;28;20489;-82
2022/05/04 00:44:49;;;;;;;4.45;4.35;;;9.10;99.90;;;;;;4167918;28;20073;-83
2022/05/04 00:46:51;;;;;;;4.22;4.13;;;9.10;99.90;;;;;;4174320;28;20048;-81
2022/05/04 00:48:53;;;;;;;4.90;4.65;;;9.10;99.90;;;;;;4159386;28;20149;-82
2022/05/04 00:50:55;;;;;;;5.00;4.90;;;9.10;99.90;;;;;;4166397;28;20116;-82
2022/05/04 00:52:57;;;;;;;5.57;5.38;;;9.00;99.90;;;;;;4172728;28;20939;-82
2022/05/04 00:55:00;;;;;;;5.28;5.03;;;8.90;99.90;;;;;;4172575;28;20050;-82
2022/05/04 00:57:04;;;;;;;6.43;6.13;;;8.80;99.90;;;;;;4167793;28;20448;-82
2022/05/04 00:59:07;;;;;;;5.53;5.32;;;8.70;99.90;;;;;;4167654;28;20646;-82
2022/05/04 01:01:09;;;;;;;5.90;5.70;;;8.70;99.90;;;;;;4170124;28;20033;-82
2022/05/04 01:03:11;;;;;;;6.38;6.28;;;8.60;99.90;;;;;;4151320;28;20085;-82
2022/05/04 01:05:13;;;;;;;5.50;5.30;;;8.60;99.90;;;;;;4158179;28;20041;-83
2022/05/04 01:07:18;;;;;;;6.30;6.10;;;8.60;99.90;;;;;;4158608;28;20076;-82
2022/05/04 01:09:20;;;;;;;6.25;6.05;;;8.60;99.90;;;;;;4172630;28;20531;-82
2022/05/04 01:11:23;;;;;;;;;;;8.60;99.90;;;;;;4172863;28;20029;-82
2022/05/04 01:13:25;;;;;;;5.85;5.75;;;8.70;99.90;;;;;;4165295;28;19925;-83
2022/05/04 01:15:27;;;;;;;5.55;5.35;;;8.70;99.90;;;;;;4169044;28;20041;-82
2022/05/04 01:17:29;;;;;;;7.15;6.50;;;8.60;99.90;;;;;;4165859;28;20029;-83
2022/05/04 01:19:31;;;;;;;5.95;5.65;;;8.60;99.90;;;;;;4173737;28;20083;-82
2022/05/04 01:21:33;;;;;;;5.78;5.68;;;8.70;99.90;;;;;;4175279;28;20064;-82
2022/05/04 01:23:36;;;;;;;7.05;6.45;;;8.70;99.90;;;;;;4144016;28;20478;-82
2022/05/04 01:25:38;;;;;;;6.28;5.97;;;8.70;99.90;;;;;;4164594;28;20446;-82
2022/05/04 01:27:40;;;;;;;5.22;4.93;;;8.70;99.90;;;;;;4157217;28;20041;-82
2022/05/04 01:29:42;;;;;;;5.47;5.28;;;8.80;99.90;;;;;;4158643;28;20061;-83
2022/05/04 01:31:44;;;;;;;6.00;5.90;;;8.80;99.90;;;;;;4166548;28;20065;-82
2022/05/04 01:33:46;;;;;;;5.75;5.55;;;8.70;99.90;;;;;;4134898;28;20049;-83
2022/05/04 01:35:48;;;;;;;5.22;5.03;;;8.70;99.90;;;;;;4154962;28;20048;-82
2022/05/04 01:37:50;;;;;;;5.00;4.80;;;8.60;99.90;;;;;;4174079;28;20105;-82
2022/05/04 01:39:52;;;;;;;6.95;6.30;;;8.60;99.90;;;;;;4164275;28;20076;-83
2022/05/04 01:42:13;;;;;;;5.03;4.93;;;8.60;99.90;;;;;;4171489;28;20076;-82
2022/05/04 01:44:15;;;;;;;5.65;5.45;;;8.50;99.90;;;;;;4188108;28;20052;-82
2022/05/04 01:46:17;;;;;;;6.13;5.35;;;8.40;99.90;;;;;;4178462;28;20123;-83
2022/05/04 01:48:20;;;;;;;6.40;6.20;;;8.30;99.90;;;;;;4185866;28;20519;-81
2022/05/04 01:50:22;;;;;;;6.20;6.10;;;8.30;99.90;;;;;;4192489;28;20037;-82
2022/05/04 01:52:25;;;;;;;6.32;5.80;;;8.20;99.90;;;;;;4190997;28;20051;-82
2022/05/04 01:54:27;;;;;;;7.00;6.57;;;8.20;99.90;;;;;;4177968;28;20033;-82
2022/05/04 01:56:29;;;;;;;6.20;5.88;;;8.30;99.90;;;;;;4178307;28;20033;-82
2022/05/04 01:58:31;;;;;;;6.07;5.82;;;8.20;99.90;;;;;;4189835;28;20120;-82
2022/05/04 02:00:34;;;;;;;7.60;5.60;;;8.20;99.90;;;;;;4193575;28;20033;-82
2022/05/04 02:02:36;;;;;;;;;;;8.30;99.90;;;;;;4178810;28;20720;-81
2022/05/04 02:04:39;;;;;;;5.85;5.57;;;8.30;99.90;;;;;;4179240;28;19929;-83
2022/05/04 02:06:42;;;;;;;6.00;5.57;;;8.30;99.90;;;;;;4191970;28;20063;-82
2022/05/04 02:08:45;;;;;;;5.82;5.65;;;8.20;99.90;;;;;;4190699;28;20033;-82
2022/05/04 02:10:48;;;;;;;5.82;5.53;;;8.10;99.90;;;;;;4184211;28;20063;-83
2022/05/04 02:12:49;;;;;;;;;;;8.20;99.90;;;;;;4195706;28;20036;-83
2022/05/04 02:14:51;;;;;;;6.18;5.88;;;8.20;99.90;;;;;;4184152;28;20015;-82
2022/05/04 02:16:53;;;;;;;4.18;3.97;;;8.30;99.90;;;;;;4193191;28;20127;-82
2022/05/04 02:18:57;;;;;;;5.72;5.45;;;8.20;99.90;;;;;;4195495;28;20041;-82
2022/05/04 02:20:59;;;;;;;6.03;5.82;;;8.20;99.90;;;;;;4177667;28;20503;-82
2022/05/04 02:23:01;;;;;;;6.03;5.82;;;8.10;99.90;;;;;;4189128;28;20124;-83
2022/05/04 02:25:03;;;;;;;5.80;5.47;;;8.10;99.90;;;;;;4193443;28;20136;-82
2022/05/04 02:27:06;;;;;;;5.80;5.70;;;7.90;99.90;;;;;;4165422;28;20057;-83
2022/05/04 02:29:08;;;;;;;4.72;4.40;;;7.90;99.90;;;;;;4154883;28;20607;-82
2022/05/04 02:31:10;;;;;;;5.22;5.03;;;7.80;99.90;;;;;;4194017;28;20036;-82
2022/05/04 02:33:14;;;;;;;5.38;5.18;;;7.80;99.90;;;;;;4189595;28;20107;-83
2022/05/04 02:37:54;;;;;;;6.47;6.18;;;7.80;99.90;;;;;;4177670;28;20076;-83
2022/05/04 02:39:56;;;;;;;5.85;5.72;;;7.70;99.90;;;;;;4186037;28;20041;-82
2022/05/04 02:41:58;;;;;;;5.82;5.53;;;7.70;99.90;;;;;;4193678;28;20041;-82
2022/05/04 02:44:03;;;;;;;5.90;5.50;;;7.60;99.90;;;;;;4185127;28;20069;-82
2022/05/04 02:46:19;;;;;;;6.80;6.53;;;7.50;99.90;;;;;;4177334;28;20045;-83
2022/05/04 02:48:22;;;;;;;6.53;6.00;;;7.60;99.90;;;;;;4191382;28;20052;-82
2022/05/04 02:50:24;;;;;;;6.22;5.95;;;7.50;99.90;;;;;;4191564;28;20598;-83
2022/05/04 02:52:26;;;;;;;7.13;6.75;;;7.50;99.90;;;;;;4178161;28;20049;-82
2022/05/04 02:54:28;;;;;;;7.22;6.22;;;7.50;99.90;;;;;;4187352;28;20047;-82
2022/05/04 02:56:30;;;;;;;5.03;4.78;;;7.40;99.90;;;;;;4184207;28;20041;-82
2022/05/04 02:58:32;;;;;;;6.68;6.05;;;7.40;99.90;;;;;;4175946;28;20041;-82
2022/05/04 03:00:34;;;;;;;4.50;4.35;;;7.40;99.90;;;;;;4177573;28;20582;-82
2022/05/04 03:02:36;;;;;;;6.22;5.80;;;7.50;99.90;;;;;;4180346;28;20065;-82
2022/05/04 03:04:39;;;;;;;5.93;5.57;;;7.50;99.90;;;;;;4177191;28;20047;-83
2022/05/04 03:06:41;;;;;;;4.18;4.07;;;7.50;99.90;;;;;;4160778;28;20756;-82
2022/05/04 03:08:43;;;;;;;5.00;4.90;;;7.50;99.90;;;;;;4176775;28;20547;-82
2022/05/04 03:13:06;;;;;;;4.53;4.43;;;7.30;99.90;;;;;;4189441;28;20781;-82
2022/05/04 03:15:08;;;;;;;4.78;4.68;;;7.30;99.90;;;;;;4179184;28;20059;-82
2022/05/04 03:17:12;;;;;;;6.15;5.95;;;7.30;99.90;;;;;;4176593;28;20138;-83
2022/05/04 03:19:14;;;;;;;6.20;5.70;;;7.30;99.90;;;;;;4194782;28;20036;-82
2022/05/04 03:21:16;;;;;;;7.75;7.13;;;7.30;99.90;;;;;;4186141;28;20032;-82
2022/05/04 03:23:18;;;;;;;7.97;7.68;;;7.30;99.90;;;;;;4174408;28;20072;-82
2022/05/04 03:25:20;;;;;;;7.05;6.85;;;7.30;99.90;;;;;;4195244;28;20068;-82
2022/05/04 03:27:22;;;;;;;6.03;5.65;;;7.20;99.90;;;;;;4175421;28;20513;-82
2022/05/04 03:29:24;;;;;;;7.05;6.45;;;6.90;99.90;;;;;;4176899;28;20041;-83
2022/05/04 03:31:26;;;;;;;5.93;5.78;;;6.80;99.90;;;;;;4175382;28;20083;-82
2022/05/04 03:33:29;;;;;;;5.60;5.45;;;6.90;99.90;;;;;;4184483;28;20048;-82
2022/05/04 03:35:31;;;;;;;6.50;6.07;;;6.90;99.90;;;;;;4185710;28;20040;-82
2022/05/04 03:37:33;;;;;;;6.97;6.68;;;6.90;99.90;;;;;;4176835;28;20041;-82
2022/05/04 03:39:35;;;;;;;5.05;4.65;;;6.90;99.90;;;;;;4191197;28;20060;-82
2022/05/04 03:41:38;;;;;;;7.35;7.05;;;7.00;99.90;;;;;;4195057;28;20532;-82
2022/05/04 03:43:41;;;;;;;6.43;5.93;;;7.00;99.90;;;;;;4185531;28;20134;-82
2022/05/04 03:45:43;;;;;;;6.82;6.43;;;7.00;99.90;;;;;;4178937;28;20413;-82
2022/05/04 03:47:45;;;;;;;8.02;7.43;;;7.00;99.90;;;;;;4179556;28;20047;-82
2022/05/04 03:49:47;;;;;;;6.75;6.25;;;6.90;99.90;;;;;;4178323;28;20052;-81
2022/05/04 03:51:49;;;;;;;5.88;5.50;;;6.70;99.90;;;;;;4188756;28;20128;-82
2022/05/04 03:53:53;;;;;;;6.38;6.05;;;6.60;99.90;;;;;;4168572;28;20657;-81
2022/05/04 03:55:55;;;;;;;4.43;4.32;;;6.50;99.90;;;;;;4174315;28;20037;-82
2022/05/04 03:57:58;;;;;;;5.47;5.13;;;6.40;99.90;;;;;;4163992;28;20712;-82
2022/05/04 04:00:00;;;;;;;5.65;5.45;;;6.30;99.90;;;;;;4178049;28;20029;-82
2022/05/04 04:02:05;;;;;;;5.20;5.10;;;6.30;99.90;;;;;;4188209;28;20041;-81
2022/05/04 04:04:07;;;;;;;5.88;5.78;;;6.40;99.90;;;;;;4195442;28;20049;-82
2022/05/04 04:06:10;;;;;;;6.40;6.30;;;6.50;99.90;;;;;;4192866;28;20715;-82
2022/05/04 04:08:12;;;;;;;6.03;5.93;;;6.70;99.90;;;;;;4176761;28;20603;-82
2022/05/04 04:10:14;;;;;;;6.28;6.00;;;6.70;99.90;;;;;;4192577;28;20128;-82
2022/05/04 04:12:16;;;;;;;6.28;5.95;;;6.60;99.90;;;;;;4175713;28;20140;-82
2022/05/04 04:14:38;;;;;;;6.88;6.68;;;6.60;99.90;;;;;;4172304;28;20528;-82
2022/05/04 04:16:40;;;;;;;6.55;6.18;;;6.70;99.90;;;;;;4182217;28;20040;-82
2022/05/04 04:18:43;;;;;;;6.90;6.60;;;6.70;99.90;;;;;;4182678;28;20032;-82
2022/05/04 04:23:06;;;;;;;6.00;5.90;;;6.50;99.90;;;;;;4177492;28;20677;-82
2022/05/04 04:25:08;;;;;;;5.82;5.35;;;6.40;99.90;;;;;;4180976;28;20103;-82
2022/05/04 04:27:10;;;;;;;6.22;5.88;;;6.30;99.90;;;;;;4172240;28;20512;-82
2022/05/04 04:29:12;;;;;;;5.35;5.25;;;6.30;99.90;;;;;;4190142;28;20045;-81
2022/05/04 04:31:14;;;;;;;6.18;5.82;;;6.20;99.90;;;;;;4175950;28;20037;-82
2022/05/04 04:33:17;;;;;;;5.72;5.32;;;6.10;99.90;;;;;;4191236;28;20033;-82
2022/05/04 04:35:19;;;;;;;4.63;4.38;;;6.20;99.90;;;;;;4185806;28;20079;-82
2022/05/04 04:37:21;;;;;;;5.72;5.47;;;6.20;99.90;;;;;;4171358;28;20128;-82
2022/05/04 04:39:23;;;;;;;6.15;5.95;;;6.20;99.90;;;;;;4158500;28;20537;-82
2022/05/04 04:41:27;;;;;;;5.10;5.00;;;6.20;99.90;;;;;;4175010;28;20065;-82
2022/05/04 04:43:29;;;;;;;5.35;5.25;;;6.10;99.90;;;;;;4161664;28;20056;-82
2022/05/04 04:45:31;;;;;;;6.68;6.15;;;6.10;99.90;;;;;;4174990;28;20521;-81
2022/05/04 04:47:33;;;;;;;6.00;5.68;;;6.10;99.90;;;;;;4189174;28;20043;-82
2022/05/04 04:49:35;;;;;;;5.80;5.68;;;6.20;99.90;;;;;;4189532;28;20029;-82
2022/05/04 04:51:37;;;;;;;5.93;5.63;;;6.20;99.90;;;;;;4184695;28;20044;-81
2022/05/04 04:53:39;;;;;;;6.97;6.78;;;6.20;99.90;;;;;;4189206;28;20033;-81
2022/05/04 04:55:42;;;;;;;6.25;5.95;;;6.30;99.90;;;;;;4175819;28;20033;-82
2022/05/04 04:57:45;;;;;;;6.15;5.93;;;6.30;99.90;;;;;;4159189;28;20076;-82
2022/05/04 04:59:49;;;;;;;7.05;6.45;;;6.30;99.90;;;;;;4184910;28;20065;-82
2022/05/04 05:01:52;;;;;;;5.38;5.05;;;6.10;99.90;;;;;;4159503;28;20041;-82
2022/05/04 05:03:55;;;;;;;4.45;4.22;;;6.10;99.90;;;;;;4159088;28;20057;-82
2022/05/04 05:05:57;;;;;;;5.63;5.53;;;6.30;99.90;;;;;;4184448;28;20459;-82
2022/05/04 05:07:59;;;;;;;5.38;5.15;;;6.40;99.90;;;;;;4171557;28;20098;-82
2022/05/04 05:10:01;;;;;;;6.70;6.22;;;6.50;99.90;;;;;;4173302;28;20140;-82
2022/05/04 05:12:04;;;;;;;6.35;6.25;;;6.60;99.90;;;;;;4187743;28;20060;-82
2022/05/04 05:16:26;;;;;;;7.13;6.70;;;6.60;99.90;;;;;;4186338;28;20110;-82
2022/05/04 05:18:29;;;;;;;8.25;6.88;;;6.70;99.90;;;;;;4178306;28;20037;-82
2022/05/04 05:20:31;;;;;;;6.28;5.97;;;6.60;99.90;;;;;;4194384;28;20036;-82
2022/05/04 05:22:33;;;;;;;7.18;6.93;;;6.60;99.90;;;;;;4183382;28;20595;-82
2022/05/04 05:24:35;;;;;;;5.93;5.50;;;6.70;99.90;;;;;;4194830;28;20099;-88
2022/05/04 05:26:37;;;;;;;7.32;7.03;;;6.90;99.90;;;;;;4196572;28;20105;-88
2022/05/04 05:28:39;;;;;;;5.70;5.60;;;7.00;99.90;;;;;;4193927;28;20071;-87
2022/05/04 05:30:42;;;;;;;6.38;5.97;;;7.10;99.90;;;;;;4187825;28;20124;-88
2022/05/04 05:32:44;;;;;;;5.15;5.05;;;7.10;99.90;;;;;;4197168;28;20082;-88
2022/05/04 05:34:47;;;;;;;5.22;4.75;;;7.10;99.90;;;;;;4192411;28;20072;-89
2022/05/04 05:36:50;;;;;;;5.35;4.85;;;7.10;99.90;;;;;;4165265;28;20033;-88
2022/05/04 05:38:53;;;;;;;5.93;5.50;;;7.10;99.90;;;;;;4178593;28;20036;-88
2022/05/04 05:40:55;;;;;;;6.43;6.15;;;7.20;99.90;;;;;;4196486;28;20124;-88
2022/05/04 05:42:57;;;;;;;4.35;4.20;;;7.20;99.90;;;;;;4177948;28;20060;-87
2022/05/04 05:44:59;;;;;;;4.53;4.43;;;7.30;99.90;;;;;;4195349;28;20033;-88
2022/05/04 05:47:01;;;;;;;6.30;5.93;;;7.30;99.90;;;;;;4177729;28;20716;-88
2022/05/04 05:49:06;;;;;;;5.53;5.32;;;7.30;99.90;;;;;;4196826;28;20056;-88
2022/05/04 05:51:08;;;;;;;5.95;5.75;;;7.30;99.90;;;;;;4173210;28;20045;-88
2022/05/04 05:53:10;;;;;;;6.25;5.93;;;7.30;99.90;;;;;;4188347;28;20056;-88
2022/05/04 05:55:12;;;;;;;5.95;5.50;;;7.40;99.90;;;;;;4178972;28;20049;-88
2022/05/04 05:57:15;;;;;;;;;;;7.50;99.90;;;;;;4196959;28;20059;-88
2022/05/04 05:59:18;;;;;;;4.93;4.38;;;7.80;99.90;;;;;;4196615;28;19966;-88
2022/05/04 06:01:21;;;;;;;5.10;4.88;;;8.10;99.90;;;;;;4159286;28;20064;-87
2022/05/04 06:03:23;;;;;;;5.50;5.30;;;8.00;99.90;;;;;;4195014;28;20082;-87
2022/05/04 06:05:25;;;;;;;4.75;4.47;;;8.00;99.90;;;;;;4156506;28;20544;-87
2022/05/04 06:07:27;;;;;;;5.60;5.18;;;8.10;99.90;;;;;;4177661;28;20211;-87
2022/05/04 06:09:29;;;;;;;5.47;5.28;;;8.10;99.90;;;;;;4179016;28;20099;-87
2022/05/04 06:11:34;;;;;;;4.25;3.90;;;8.30;99.90;;;;;;4179145;28;20048;-87
2022/05/04 06:13:36;;;;;;;5.10;4.72;;;8.50;99.90;;;;;;4175548;28;20079;-87
2022/05/04 06:15:39;;;;;;;5.03;4.57;;;8.70;99.90;;;;;;4195571;28;20145;-87
2022/05/04 06:17:42;;;;;;;4.32;4.22;;;8.70;99.90;;;;;;4178755;28;20079;-87
2022/05/04 06:19:44;;;;;;;4.05;3.92;;;8.80;99.90;;;;;;4178617;28;20513;-87
2022/05/04 06:21:47;;;;;;;6.15;4.70;;;8.90;99.90;;;;;;4194964;28;20036;-87
2022/05/04 06:23:52;;;;;;;4.97;4.50;;;8.90;99.90;;;;;;4177711;28;20103;-87
2022/05/04 06:25:55;;;;;;;21.15;5.90;;;9.00;99.90;;;;;;4188821;28;20041;-87
2022/05/04 06:27:57;;;;;;;7.65;4.32;;;9.20;99.90;;;;;;4163681;28;20060;-87
2022/05/04 06:34:42;;;;;;;4.07;3.55;;;9.70;99.90;;;;;;4191090;28;20041;-88
2022/05/04 06:36:44;;;;;;;4.88;4.50;;;9.90;99.90;;;;;;4178299;28;20411;-87
2022/05/04 06:38:47;;;;;;;7.85;5.05;;;10.20;99.90;;;;;;4196161;28;20036;-87
2022/05/04 06:40:49;;;;;;;6.82;4.47;;;10.30;99.90;;;;;;4195406;28;20122;-88
2022/05/04 06:42:51;;;;;;;7.20;3.88;;;10.50;99.90;;;;;;4178339;28;20132;-87
2022/05/04 06:44:53;;;;;;;4.25;4.13;;;10.50;99.90;;;;;;4177249;28;20137;-87
2022/05/04 06:46:55;;;;;;;3.90;3.75;;;10.50;99.90;;;;;;4191440;28;20063;-87
2022/05/04 06:48:58;;;;;;;4.35;4.10;;;10.50;99.90;;;;;;4162135;28;20315;-87
2022/05/04 06:51:00;;;;;;;5.68;4.78;;;10.70;99.90;;;;;;4193778;28;20535;-87
2022/05/04 06:53:02;;;;;;;3.78;3.67;;;10.90;99.90;;;;;;4194840;28;20040;-88
2022/05/04 06:55:08;;;;;;;4.68;4.47;;;11.10;99.90;;;;;;4194600;28;20420;-88
2022/05/04 06:57:10;;;;;;;4.22;4.05;;;11.10;99.90;;;;;;4179541;28;20037;-88
2022/05/04 06:59:13;;;;;;;4.05;3.60;;;11.30;99.90;;;;;;4161991;28;20041;-88
2022/05/04 07:01:19;;;;;;;4.00;3.55;;;11.50;99.90;;;;;;4176928;28;20106;-88
2022/05/04 07:03:21;;;;;;;4.18;4.07;;;11.60;99.90;;;;;;4178381;28;20045;-88
2022/05/04 07:05:25;;;;;;;2.97;2.80;;;12.00;99.90;;;;;;4178182;28;20037;-88
2022/05/04 07:07:27;;;;;;;3.45;3.20;;;12.00;99.90;;;;;;4189983;28;20508;-88
2022/05/04 07:09:29;;;;;;;5.30;3.25;;;12.10;99.90;;;;;;4194367;28;20072;-88
2022/05/04 07:11:31;;;;;;;2.97;2.80;;;12.10;99.90;;;;;;4194815;28;20037;-88
2022/05/04 07:13:34;;;;;;;31.25;5.97;;;12.40;99.90;;;;;;4177826;28;20824;-88
2022/05/04 07:15:37;;;;;;;5.63;3.17;;;12.60;99.90;;;;;;4179610;28;20052;-88
2022/05/04 07:17:39;;;;;;;22.50;5.90;;;12.60;99.90;;;;;;4177835;28;20098;-89
2022/05/04 07:19:41;;;;;;;2.08;1.98;;;12.50;99.90;;;;;;4194741;28;20047;-88
2022/05/04 07:21:43;;;;;;;1.98;1.88;;;12.70;99.90;;;;;;4194817;28;20040;-88
2022/05/04 07:23:46;;;;;;;1.80;1.70;;;12.90;99.90;;;;;;4193108;28;20032;-88
2022/05/04 07:25:48;;;;;;;1.38;1.38;;;13.00;99.90;;;;;;4173090;28;20037;-89
2022/05/04 07:27:51;;;;;;;3.13;1.20;;;13.30;99.90;;;;;;4185835;28;20044;-89
2022/05/04 07:29:53;;;;;;;2.20;1.50;;;13.50;99.90;;;;;;4183157;28;20048;-88
2022/05/04 07:31:56;;;;;;;2.13;1.85;;;13.90;99.90;;;;;;4191596;28;20048;-88
2022/05/04 07:33:59;;;;;;;1.75;1.67;;;14.20;99.90;;;;;;4180427;28;20051;-88
2022/05/04 07:36:01;;;;;;;1.98;1.83;;;14.10;99.90;;;;;;4177688;28;20632;-88
2022/05/04 07:38:04;;;;;;;2.30;2.20;;;14.20;99.90;;;;;;4177370;28;20045;-88
2022/05/04 07:42:28;;;;;;;3.03;1.55;;;14.70;99.90;;;;;;4193774;28;20469;-88
2022/05/04 07:44:30;;;;;;;1.58;1.48;;;15.00;99.90;;;;;;4166705;28;20041;-89
2022/05/04 07:46:33;;;;;;;2.25;2.00;;;15.20;99.90;;;;;;4178941;28;20088;-88
2022/05/04 07:48:36;;;;;;;2.17;1.50;;;15.00;99.90;;;;;;4169361;28;20045;-88
2022/05/04 07:50:40;;;;;;;2.67;1.42;;;14.90;99.90;;;;;;4195270;28;20075;-88
2022/05/04 07:52:42;;;;;;;1.02;1.02;;;15.10;99.90;;;;;;4195043;28;20036;-88
2022/05/04 07:54:44;;;;;;;1.65;1.52;;;15.20;99.90;;;;;;4194177;28;20613;-88
2022/05/04 07:56:47;;;;;;;1.27;1.27;;;15.40;99.90;;;;;;4177413;28;20045;-89
2022/05/04 07:58:50;;;;;;;1.33;1.30;;;15.40;99.90;;;;;;4193174;28;20044;-88
2022/05/04 08:05:40;;;;;;;1.95;1.83;;;15.50;99.90;;;;;;4194155;28;20090;-88
2022/05/04 08:07:42;;;;;;;1.38;1.33;;;15.50;99.90;;;;;;4163971;28;20087;-88
2022/05/04 08:09:44;;;;;;;5.78;1.85;;;15.70;99.90;;;;;;4179122;28;20132;-88
2022/05/04 08:11:46;;;;;;;2.05;1.33;;;15.90;99.90;;;;;;4196581;28;20044;-88
2022/05/04 08:13:48;;;;;;;1.10;1.10;;;16.10;99.90;;;;;;4195264;28;20052;-88
2022/05/04 08:15:50;;;;;;;1.80;1.58;;;16.30;99.90;;;;;;4178502;28;20040;-88
2022/05/04 08:17:53;;;;;;;2.28;2.17;;;16.40;99.90;;;;;;4161557;28;20037;-88
2022/05/04 08:19:55;;;;;;;1.30;1.30;;;16.40;99.90;;;;;;4177381;28;20456;-88
2022/05/04 08:21:57;;;;;;;1.67;1.55;;;16.80;99.90;;;;;;4178091;28;20102;-88
2022/05/04 08:24:00;;;;;;;3.75;2.17;;;16.70;99.90;;;;;;4195790;28;20047;-89
2022/05/04 08:26:17;;;;;;;1.50;1.50;;;17.10;99.90;;;;;;4178003;28;20037;-88
2022/05/04 08:28:19;;;;;;;1.77;1.67;;;17.80;99.90;;;;;;4178891;28;20049;-89
2022/05/04 08:30:23;;;;;;;2.35;2.15;;;18.30;99.90;;;;;;4178313;28;20048;-89
2022/05/04 08:32:32;;;;;;;4.00;2.35;;;18.70;99.90;;;;;;4160336;28;20075;-89
2022/05/04 08:34:34;;;;;;;2.45;2.35;;;18.60;99.90;;;;;;4175949;28;20811;-88
2022/05/04 08:36:37;;;;;;;2.83;2.75;;;18.60;99.90;;;;;;4176984;28;20052;-90
2022/05/04 08:38:42;;;;;;;2.60;2.50;;;18.20;99.90;;;;;;4184706;28;20094;-90
2022/05/04 08:40:45;;;;;;;3.35;3.20;;;18.00;99.90;;;;;;4160751;28;20041;-89
2022/05/04 08:42:47;;;;;;;3.05;2.92;;;18.20;99.90;;;;;;4176950;28;20580;-89
2022/05/04 08:44:54;;;;;;;3.03;2.92;;;18.20;99.90;;;;;;4176235;28;20637;-90
2022/05/04 08:46:59;;;;;;;2.28;2.28;;;18.70;99.90;;;;;;4193884;28;20048;-89
2022/05/04 08:49:03;;;;;;;5.28;2.22;;;18.90;99.90;;;;;;4192128;28;20045;-90
2022/05/04 08:51:05;;;;;;;2.22;2.13;;;18.70;99.90;;;;;;4160257;28;20049;-89
2022/05/04 08:53:08;;;;;;;2.40;2.30;;;18.80;99.90;;;;;;4160424;28;20045;-90
2022/05/04 08:55:10;;;;;;;2.75;2.65;;;18.50;99.90;;;;;;4194710;28;20036;-90
2022/05/04 08:57:13;;;;;;;;;;;18.50;99.90;;;;;;4195822;28;20045;-89
2022/05/04 08:59:16;;;;;;;;;;;18.80;99.90;;;;;;4161398;28;19924;-90
2022/05/04 09:01:19;;;;;;;;;;;19.10;99.90;;;;;;4189754;28;20011;-90
2022/05/04 09:03:23;;;;;;;2.47;2.40;;;19.10;99.90;;;;;;4194484;28;19927;-89
2022/05/04 09:05:29;;;;;;;2.13;2.05;;;19.30;99.90;;;;;;4175320;28;20052;-89
2022/05/04 09:07:31;;;;;;;1.83;1.60;;;19.50;99.90;;;;;;4177208;28;20115;-90
2022/05/04 09:09:34;;;;;;;2.35;2.25;;;19.80;99.90;;;;;;4177154;28;20064;-88
2022/05/04 09:11:41;;;;;;;6.38;2.13;;;19.70;99.90;;;;;;4183259;28;20033;-89
2022/05/04 09:13:47;;;;;;;2.28;1.70;;;19.70;99.90;;;;;;4169514;28;20037;-88
2022/05/04 09:15:55;;;;;;;1.67;1.55;;;19.80;99.90;;;;;;4176319;28;20072;-89
2022/05/04 09:17:58;;;;;;;1.70;1.60;;;19.70;99.90;;;;;;4182383;28;20041;-89
2022/05/04 09:22:23;;;;;;;1.85;1.83;;;19.90;99.90;;;;;;4194647;28;20029;-89
2022/05/04 09:24:29;;;;;;;1.40;1.40;;;20.10;99.90;;;;;;4195083;28;20047;-90
2022/05/04 09:26:38;;;;;;;1.30;1.20;;;20.20;99.90;;;;;;4176356;28;20045;-89
2022/05/04 09:28:40;;;;;;;1.88;1.70;;;20.20;99.90;;;;;;4161069;28;20040;-89
2022/05/04 09:30:51;;;;;;;;;;;20.20;99.90;;;;;;4194617;28;20075;-90
2022/05/04 09:32:54;;;;;;;1.95;1.30;;;20.00;99.90;;;;;;4193306;28;20297;-89
2022/05/04 09:34:56;;;;;;;;;;;20.20;99.90;;;;;;4162636;28;20042;-89
2022/05/04 09:44:54;;;;;;;1.50;1.40;;;20.30;99.90;;;;;;4192390;28;20033;-89
2022/05/04 09:46:58;;;;;;;2.78;1.88;;;20.10;99.90;;;;;;4193535;28;20033;-89
2022/05/04 09:49:09;;;;;;;1.60;1.50;;;19.80;99.90;;;;;;4191554;28;20505;-89
2022/05/04 09:51:12;;;;;;;2.90;1.50;;;19.90;99.90;;;;;;4164715;28;20045;-89
2022/05/04 09:53:26;;;;;;;1.70;1.60;;;19.70;99.90;;;;;;4194079;28;20037;-89
2022/05/04 09:55:29;;;;;;;1.73;1.30;;;20.10;99.90;;;;;;4183348;28;20041;-90
2022/05/04 09:57:32;;;;;;;1.52;1.52;;;20.60;99.90;;;;;;4168716;28;20043;-89
2022/05/04 09:59:38;;;;;;;2.92;1.60;;;20.60;99.90;;;;;;4175057;28;20037;-89
2022/05/04 10:01:42;;;;;;;1.55;1.48;;;19.80;99.90;;;;;;4179117;28;20059;-90
2022/05/04 10:03:50;;;;;;;3.10;1.52;;;20.10;99.90;;;;;;4179376;28;20479;-89
2022/05/04 10:05:54;;;;;;;1.85;1.75;;;20.00;99.90;;;;;;4190373;28;20032;-89
2022/05/04 10:07:58;;;;;;;1.23;1.23;;;20.00;99.90;;;;;;4151200;28;20081;-89
2022/05/04 10:10:01;;;;;;;1.30;1.30;;;19.40;99.90;;;;;;4183215;28;20092;-89
2022/05/04 10:12:06;;;;;;;1.80;1.40;;;19.20;99.90;;;;;;4178346;28;20036;-89
2022/05/04 10:14:15;;;;;;;4.45;1.90;;;18.90;99.90;;;;;;4178513;28;20136;-90
2022/05/04 10:16:17;;;;;;;3.75;1.42;;;19.10;99.90;;;;;;4174524;28;20116;-89
2022/05/04 10:18:27;;;;;;;2.97;2.13;;;19.00;99.90;;;;;;4180368;28;20029;-90
2022/05/04 10:20:31;;;;;;;4.78;1.55;;;18.80;99.90;;;;;;4194075;28;20036;-89
2022/05/04 10:22:49;;;;;;;3.15;2.15;;;18.90;99.90;;;;;;4172738;28;20484;-89
2022/05/04 10:24:55;;;;;;;2.05;1.92;;;18.60;99.90;;;;;;4185805;28;20754;-91
2022/05/04 10:27:03;;;;;;;2.60;2.15;;;18.50;99.90;;;;;;4178929;28;20052;-90
2022/05/04 10:31:54;;;;;;;2.67;2.47;;;18.30;99.90;;;;;;4163185;28;20041;-90
2022/05/04 10:33:57;;;;;;;1.60;1.60;;;18.10;99.90;;;;;;4188505;28;20444;-90
2022/05/04 10:36:20;;;;;;;1.98;1.88;;;17.90;99.90;;;;;;4188119;28;20041;-90
2022/05/04 10:38:28;;;;;;;2.33;2.22;;;17.60;99.90;;;;;;4194985;28;20039;-89
2022/05/04 10:40:33;;;;;;;4.05;3.33;;;17.40;99.90;;;;;;4188143;28;20120;-89
2022/05/04 10:43:21;;;;;;;5.45;2.75;;;17.30;99.90;;;;;;4168116;28;20033;-89
2022/05/04 10:45:34;;;;;;;9.65;6.32;;;17.20;99.90;;;;;;4156961;28;20072;-89
2022/05/04 10:47:37;;;;;;;3.72;3.13;;;17.10;99.90;;;;;;4161117;28;20042;-90
2022/05/04 10:49:39;;;;;;;37.42;17.50;;;17.20;99.90;;;;;;4189103;28;20480;-90
2022/05/04 10:51:49;;;;;;;100.28;45.03;;;17.20;99.90;;;;;;4170975;28;20528;-89
2022/05/04 10:53:55;;;;;;;26.40;12.38;;;17.30;99.90;;;;;;4154543;28;20593;-90
2022/05/04 10:56:03;;;;;;;133.77;55.13;;;17.70;99.90;;;;;;4190009;28;20634;-91
2022/05/04 10:58:33;;;;;;;7.38;5.43;;;18.10;99.90;;;;;;4188863;28;20491;-89
2022/05/04 11:00:35;;;;;;;39.78;17.52;;;18.40;99.90;;;;;;4139570;28;20494;-90
2022/05/04 11:02:49;;;;;;;5.65;4.30;;;18.80;99.90;;;;;;4173265;28;20493;-89
2022/05/04 11:04:55;;;;;;;2.08;2.03;;;19.00;99.90;;;;;;4170786;28;20475;-90
2022/05/04 11:07:07;;;;;;;2.25;2.13;;;19.00;99.90;;;;;;4175600;28;20637;-89
2022/05/04 11:09:11;;;;;;;1.70;1.60;;;18.80;99.90;;;;;;4159438;28;20145;-89
2022/05/04 11:11:13;;;;;;;4.35;4.03;;;18.50;99.90;;;;;;4194346;28;20051;-89
2022/05/04 11:13:18;;;;;;;10.57;6.80;;;18.40;99.90;;;;;;4160588;28;20189;-89
2022/05/04 11:15:21;;;;;;;2.25;2.15;;;18.50;99.90;;;;;;4178822;28;20053;-89
2022/05/04 11:17:23;;;;;;;4.82;4.03;;;18.20;99.90;;;;;;4193000;28;20072;-90
2022/05/04 11:19:28;;;;;;;;;;;18.30;99.90;;;;;;4188581;28;20548;-89
2022/05/04 11:21:31;;;;;;;11.88;6.55;;;18.90;99.90;;;;;;4177070;28;19924;-90
2022/05/04 11:23:37;;;;;;;3.97;2.90;;;19.60;99.90;;;;;;4176620;28;20037;-90
2022/05/04 11:25:49;;;;;;;15.40;8.80;;;20.10;99.90;;;;;;4193867;28;20032;-90